createdAt,value
2018-09-27T00:01:49.676Z,102553.73
2018-09-27T00:04:19.416Z,102548.34
2018-09-27T00:06:49.331Z,102538.64
2018-09-27T00:09:19.093Z,102535.32
2018-09-27T00:11:49.096Z,102531.01
2018-09-27T00:14:18.968Z,102533.05
2018-09-27T00:16:48.932Z,102527.34
2018-09-27T00:19:18.923Z,102528.96
2018-09-27T00:21:49.581Z,102528.56
2018-09-27T00:24:19.370Z,102534.09
2018-09-27T00:26:49.323Z,102532.73
2018-09-27T00:29:19.816Z,102534.49
2018-09-27T00:31:49.692Z,102537.56
2018-09-27T00:34:20.060Z,102529.91
2018-09-27T00:36:49.889Z,102532.83
2018-09-27T00:39:20.085Z,102527.14
2018-09-27T00:41:50.259Z,102521.42
2018-09-27T00:44:20.059Z,102523.02
2018-09-27T00:46:50.096Z,102526.11
2018-09-27T00:49:19.962Z,102514.69
2018-09-27T00:51:50.028Z,102515.62
2018-09-27T00:54:19.771Z,102522.63
2018-09-27T00:56:49.536Z,102516.66
2018-09-27T00:59:20.676Z,102519.90
2018-09-27T01:01:50.537Z,102510.32
2018-09-27T01:04:20.388Z,102509.62
2018-09-27T01:06:50.065Z,102510.98
2018-09-27T01:09:19.688Z,102513.66
2018-09-27T01:11:49.408Z,102501.55
2018-09-27T01:14:19.122Z,102500.37
2018-09-27T01:16:49.061Z,102490.35
2018-09-27T01:19:18.846Z,102495.13
2018-09-27T01:21:48.553Z,102494.55
2018-09-27T01:24:18.304Z,102494.84
2018-09-27T01:26:47.973Z,102499.55
2018-09-27T01:29:17.616Z,102500.02
2018-09-27T01:31:47.251Z,102502.81
2018-09-27T01:34:16.873Z,102497.39
2018-09-27T01:36:46.644Z,102492.45
2018-09-27T01:39:16.416Z,102489.93
2018-09-27T01:41:46.150Z,102496.16
2018-09-27T01:44:15.809Z,102494.50
2018-09-27T01:46:45.452Z,102489.73
2018-09-27T01:49:15.221Z,102485.91
2018-09-27T01:51:44.840Z,102474.27
2018-09-27T01:54:14.602Z,102481.86
2018-09-27T01:56:44.962Z,102483.16
2018-09-27T02:01:51.324Z,102476.39
2018-09-27T02:04:21.973Z,102475.40
2018-09-27T02:06:51.741Z,102474.98
2018-09-27T02:09:22.575Z,102480.22
2018-09-27T02:11:52.202Z,102479.41
2018-09-27T02:14:21.885Z,102481.97
2018-09-27T02:16:51.851Z,102486.86
2018-09-27T02:19:21.486Z,102481.22
2018-09-27T02:21:53.754Z,102479.52
2018-09-27T02:24:23.420Z,102476.69
2018-09-27T02:26:53.127Z,102473.45
2018-09-27T02:29:22.724Z,102477.64
2018-09-27T02:31:52.430Z,102469.47
2018-09-27T02:34:22.030Z,102469.23
2018-09-27T02:36:51.759Z,102470.22
2018-09-27T02:39:21.386Z,102475.05
2018-09-27T02:41:51.286Z,102473.63
2018-09-27T02:44:20.994Z,102472.33
2018-09-27T02:46:50.819Z,102478.62
2018-09-27T02:49:20.450Z,102476.91
2018-09-27T02:51:50.168Z,102472.45
2018-09-27T02:54:19.762Z,102467.09
2018-09-27T02:56:49.340Z,102463.87
2018-09-27T02:59:18.903Z,102462.27
2018-09-27T03:01:48.541Z,102459.27
2018-09-27T03:04:18.184Z,102456.12
2018-09-27T03:06:47.805Z,102449.48
2018-09-27T03:09:17.527Z,102454.81
2018-09-27T03:11:47.343Z,102455.91
2018-09-27T03:14:16.963Z,102453.48
2018-09-27T03:16:46.663Z,102446.42
2018-09-27T03:19:16.392Z,102443.71
2018-09-27T03:21:46.047Z,102442.95
2018-09-27T03:24:15.781Z,102440.77
2018-09-27T03:26:45.468Z,102435.94
2018-09-27T03:29:15.133Z,102432.77
2018-09-27T03:31:44.809Z,102432.05
2018-09-27T03:34:14.505Z,102427.83
2018-09-27T03:36:44.308Z,102422.63
2018-09-27T03:39:13.883Z,102424.22
2018-09-27T03:41:43.550Z,102418.09
2018-09-27T03:44:13.383Z,102419.23
2018-09-27T03:46:43.046Z,102424.41
2018-09-27T03:49:12.635Z,102420.53
2018-09-27T03:51:42.274Z,102411.82
2018-09-27T03:54:11.970Z,102406.47
2018-09-27T03:56:41.629Z,102404.59
2018-09-27T03:59:11.265Z,102404.64
2018-09-27T04:01:40.955Z,102405.75
2018-09-27T04:04:10.605Z,102401.28
2018-09-27T04:06:40.324Z,102404.37
2018-09-27T04:09:10.946Z,102400.64
2018-09-27T04:11:40.950Z,102394.08
2018-09-27T04:14:10.825Z,102396.77
2018-09-27T04:16:40.471Z,102391.81
2018-09-27T04:19:10.098Z,102393.60
2018-09-27T04:21:39.783Z,102399.48
2018-09-27T04:24:09.728Z,102391.09
2018-09-27T04:26:39.267Z,102383.69
2018-09-27T04:29:09.162Z,102394.52
2018-09-27T04:31:39.093Z,102399.97
2018-09-27T04:34:09.078Z,102404.08
2018-09-27T04:36:38.758Z,102400.78
2018-09-27T04:39:11.201Z,102394.41
2018-09-27T04:41:40.824Z,102387.82
2018-09-27T04:44:10.690Z,102395.75
2018-09-27T04:46:40.476Z,102395.34
2018-09-27T04:49:10.142Z,102391.39
2018-09-27T04:51:39.921Z,102396.16
2018-09-27T04:54:09.608Z,102391.16
2018-09-27T04:56:39.345Z,102393.42
2018-09-27T04:59:09.102Z,102388.05
2018-09-27T05:01:38.779Z,102387.42
2018-09-27T05:04:08.838Z,102384.17
2018-09-27T05:06:38.469Z,102391.77
2018-09-27T05:09:08.990Z,102390.44
2018-09-27T05:11:38.981Z,102385.50
2018-09-27T05:14:08.604Z,102389.22
2018-09-27T05:16:38.493Z,102391.94
2018-09-27T05:19:08.765Z,102393.88
2018-09-27T05:21:38.631Z,102394.12
2018-09-27T05:24:08.276Z,102384.93
2018-09-27T05:26:37.951Z,102382.44
2018-09-27T05:29:07.657Z,102380.80
2018-09-27T05:31:40.205Z,102382.52
2018-09-27T05:34:10.041Z,102375.63
2018-09-27T05:36:39.823Z,102375.47
2018-09-27T05:39:11.777Z,102384.22
2018-09-27T05:41:42.001Z,102382.58
2018-09-27T05:44:12.701Z,102382.47
2018-09-27T05:46:44.423Z,102388.28
2018-09-27T05:49:14.093Z,102382.64
2018-09-27T05:51:43.745Z,102378.36
2018-09-27T05:54:14.660Z,102378.77
2018-09-27T05:56:44.792Z,102376.25
2018-09-27T05:59:14.575Z,102372.65
2018-09-27T06:01:44.250Z,102374.42
2018-09-27T06:04:14.033Z,102371.76
2018-09-27T06:06:43.997Z,102372.58
2018-09-27T06:09:13.817Z,102363.52
2018-09-27T06:11:43.652Z,102362.61
2018-09-27T06:14:13.253Z,102360.73
2018-09-27T06:16:43.725Z,102357.39
2018-09-27T06:19:13.402Z,102359.27
2018-09-27T06:21:43.047Z,102356.80
2018-09-27T06:24:12.840Z,102358.79
2018-09-27T06:26:42.509Z,102353.77
2018-09-27T06:29:13.304Z,102345.47
2018-09-27T06:31:44.306Z,102350.26
2018-09-27T06:34:15.426Z,102343.63
2018-09-27T06:36:46.196Z,102348.28
2018-09-27T06:39:16.822Z,102349.80
2018-09-27T06:41:47.216Z,102348.65
2018-09-27T06:44:18.032Z,102347.53
2018-09-27T06:46:47.683Z,102349.97
2018-09-27T06:49:17.271Z,102352.70
2018-09-27T06:51:47.176Z,102363.33
2018-09-27T06:54:16.779Z,102355.30
2018-09-27T06:56:46.419Z,102361.41
2018-09-27T06:59:16.056Z,102359.29
2018-09-27T07:01:45.841Z,102355.54
2018-09-27T07:04:15.516Z,102354.23
2018-09-27T07:06:45.161Z,102356.28
2018-09-27T07:09:14.941Z,102354.05
2018-09-27T07:11:44.546Z,102355.27
2018-09-27T07:14:15.030Z,102351.50
2018-09-27T07:16:44.709Z,102354.59
2018-09-27T07:19:14.446Z,102351.00
2018-09-27T07:21:44.126Z,102347.14
2018-09-27T07:24:13.797Z,102340.70
2018-09-27T07:26:43.626Z,102338.86
2018-09-27T07:29:13.182Z,102337.10
2018-09-27T07:31:43.046Z,102338.70
2018-09-27T07:34:12.738Z,102340.05
2018-09-27T07:36:42.568Z,102333.05
2018-09-27T07:39:13.034Z,102338.97
2018-09-27T07:41:42.790Z,102335.25
2018-09-27T07:44:12.943Z,102335.45
2018-09-27T07:46:42.719Z,102337.53
2018-09-27T07:49:12.354Z,102334.10
2018-09-27T07:51:42.135Z,102333.01
2018-09-27T07:54:11.834Z,102335.03
2018-09-27T07:56:41.615Z,102335.13
2018-09-27T07:59:11.230Z,102335.36
2018-09-27T08:01:40.841Z,102334.67
2018-09-27T08:04:10.624Z,102336.16
2018-09-27T08:06:40.212Z,102333.97
2018-09-27T08:09:10.250Z,102334.56
2018-09-27T08:11:40.390Z,102332.98
2018-09-27T08:14:10.015Z,102325.01
2018-09-27T08:16:39.845Z,102328.88
2018-09-27T08:19:09.549Z,102324.67
2018-09-27T08:21:39.158Z,102318.49
2018-09-27T08:24:08.995Z,102318.05
2018-09-27T08:26:38.599Z,102303.72
2018-09-27T08:29:08.455Z,102310.31
2018-09-27T08:31:38.978Z,102307.81
2018-09-27T08:34:08.694Z,102302.77
2018-09-27T08:36:38.340Z,102294.66
2018-09-27T08:39:10.961Z,102292.88
2018-09-27T08:41:40.807Z,102288.15
2018-09-27T08:44:11.466Z,102283.05
2018-09-27T08:46:42.250Z,102280.54
2018-09-27T08:49:12.010Z,102275.77
2018-09-27T08:51:41.818Z,102286.64
2018-09-27T08:54:11.417Z,102284.10
2018-09-27T08:56:41.121Z,102272.52
2018-09-27T08:59:10.782Z,102270.95
2018-09-27T09:01:40.763Z,102263.95
2018-09-27T09:04:10.378Z,102264.02
2018-09-27T09:06:40.191Z,102261.61
2018-09-27T09:09:12.522Z,102262.77
2018-09-27T09:11:42.228Z,102264.37
2018-09-27T09:14:12.720Z,102259.53
2018-09-27T09:16:42.399Z,102254.94
2018-09-27T09:19:12.314Z,102255.06
2018-09-27T09:21:41.988Z,102250.07
2018-09-27T09:24:11.762Z,102249.16
2018-09-27T09:26:41.483Z,102247.12
2018-09-27T09:29:11.169Z,102248.97
2018-09-27T09:31:40.865Z,102240.59
2018-09-27T09:34:10.611Z,102238.41
2018-09-27T09:36:40.345Z,102241.73
2018-09-27T09:39:10.355Z,102243.02
2018-09-27T09:41:40.033Z,102235.02
2018-09-27T09:44:09.820Z,102231.48
2018-09-27T09:46:39.627Z,102226.50
2018-09-27T09:49:09.337Z,102220.67
2018-09-27T09:51:39.081Z,102225.19
2018-09-27T09:54:08.880Z,102211.12
2018-09-27T09:56:38.577Z,102206.08
2018-09-27T09:59:08.423Z,102204.47
2018-09-27T10:01:38.219Z,102199.78
2018-09-27T10:04:08.106Z,102201.34
2018-09-27T10:06:37.778Z,102199.33
2018-09-27T10:09:09.669Z,102198.33
2018-09-27T10:11:39.438Z,102196.17
2018-09-27T10:14:09.444Z,102195.48
2018-09-27T10:16:40.217Z,102192.19
2018-09-27T10:19:09.947Z,102191.26
2018-09-27T10:21:39.725Z,102184.84
2018-09-27T10:24:09.390Z,102184.46
2018-09-27T10:26:39.100Z,102177.59
2018-09-27T10:29:08.821Z,102166.72
2018-09-27T10:31:38.466Z,102168.87
2018-09-27T10:34:08.347Z,102167.18
2018-09-27T10:36:38.111Z,102162.30
2018-09-27T10:39:10.848Z,102156.84
2018-09-27T10:41:40.610Z,102156.52
2018-09-27T10:44:10.320Z,102146.16
2018-09-27T10:46:40.170Z,102154.75
2018-09-27T10:49:09.920Z,102147.65
2018-09-27T10:51:39.719Z,102142.15
2018-09-27T10:54:09.551Z,102136.71
2018-09-27T10:56:39.393Z,102132.94
2018-09-27T10:59:09.051Z,102136.65
2018-09-27T11:01:38.926Z,102126.52
2018-09-27T11:04:08.794Z,102126.83
2018-09-27T11:06:38.476Z,102124.81
2018-09-27T11:09:09.691Z,102118.95
2018-09-27T11:11:39.529Z,102113.05
2018-09-27T11:14:09.362Z,102110.48
2018-09-27T11:16:39.362Z,102105.27
2018-09-27T11:19:09.123Z,102100.47
2018-09-27T11:21:38.768Z,102096.23
2018-09-27T11:24:08.490Z,102082.62
2018-09-27T11:26:38.224Z,102080.69
2018-09-27T11:29:13.054Z,102065.67
2018-09-27T11:31:47.710Z,102069.44
2018-09-27T11:34:17.461Z,102065.11
2018-09-27T11:36:47.224Z,102058.13
2018-09-27T11:39:16.962Z,102054.80
2018-09-27T11:41:46.648Z,102050.60
2018-09-27T11:44:16.330Z,102043.18
2018-09-27T11:46:46.268Z,102042.03
2018-09-27T11:49:16.044Z,102041.79
2018-09-27T11:51:45.722Z,102030.77
2018-09-27T11:54:15.445Z,102024.61
2018-09-27T11:56:45.349Z,102019.83
2018-09-27T11:59:15.124Z,102017.73
2018-09-27T12:01:44.896Z,102013.00
2018-09-27T12:04:14.534Z,102009.97
2018-09-27T12:06:44.339Z,102007.00
2018-09-27T12:09:13.980Z,102002.52
2018-09-27T12:11:43.662Z,101988.46
2018-09-27T12:14:13.927Z,101984.56
2018-09-27T12:16:43.916Z,101980.81
2018-09-27T12:19:13.722Z,101969.09
2018-09-27T12:21:43.480Z,101964.72
2018-09-27T12:24:13.365Z,101955.95
2018-09-27T12:26:43.167Z,101952.51
2018-09-27T12:29:13.270Z,101949.68
2018-09-27T12:31:43.129Z,101941.57
2018-09-27T12:34:13.105Z,101939.38
2018-09-27T12:36:43.045Z,101933.23
2018-09-27T12:39:13.338Z,101924.80
2018-09-27T12:41:43.183Z,101918.60
2018-09-27T12:44:12.841Z,101908.52
2018-09-27T12:46:42.517Z,101909.35
2018-09-27T12:49:12.310Z,101903.84
2018-09-27T12:51:42.046Z,101895.58
2018-09-27T12:54:11.896Z,101893.72
2018-09-27T12:56:41.768Z,101888.13
2018-09-27T12:59:11.683Z,101883.30
2018-09-27T13:01:41.394Z,101874.11
2018-09-27T13:04:11.337Z,101870.45
2018-09-27T13:06:41.078Z,101859.84
2018-09-27T13:09:11.126Z,101861.04
2018-09-27T13:11:40.946Z,101856.83
2018-09-27T13:14:10.679Z,101847.83
2018-09-27T13:16:40.492Z,101845.70
2018-09-27T13:19:10.306Z,101832.98
2018-09-27T13:21:40.082Z,101829.72
2018-09-27T13:24:09.724Z,101822.73
2018-09-27T13:26:39.441Z,101822.41
2018-09-27T13:29:09.153Z,101810.35
2018-09-27T13:31:38.841Z,101807.57
2018-09-27T13:34:08.797Z,101803.80
2018-09-27T13:36:38.555Z,101796.50
2018-09-27T13:39:10.355Z,101801.56
2018-09-27T13:41:40.692Z,101792.44
2018-09-27T13:44:10.571Z,101791.16
2018-09-27T13:46:40.246Z,101787.59
2018-09-27T13:49:09.962Z,101787.83
2018-09-27T13:51:39.670Z,101784.74
2018-09-27T13:54:09.318Z,101776.95
2018-09-27T13:56:39.160Z,101773.92
2018-09-27T13:59:08.916Z,101773.89
2018-09-27T14:01:38.563Z,101766.64
2018-09-27T14:04:08.303Z,101758.72
2018-09-27T14:06:37.975Z,101756.28
2018-09-27T14:09:10.679Z,101751.53
2018-09-27T14:11:40.423Z,101751.25
2018-09-27T14:14:10.355Z,101746.33
2018-09-27T14:16:40.075Z,101737.06
2018-09-27T14:19:09.874Z,101737.91
2018-09-27T14:21:39.628Z,101736.55
2018-09-27T14:24:09.412Z,101727.51
2018-09-27T14:26:39.189Z,101729.94
2018-09-27T14:29:08.882Z,101716.50
2018-09-27T14:31:38.608Z,101721.72
2018-09-27T14:34:08.443Z,101721.29
2018-09-27T14:36:38.330Z,101712.91
2018-09-27T14:39:10.593Z,101716.45
2018-09-27T14:41:40.768Z,101715.00
2018-09-27T14:44:10.468Z,101705.83
2018-09-27T14:46:40.132Z,101707.33
2018-09-27T14:49:10.028Z,101699.95
2018-09-27T14:51:39.836Z,101699.22
2018-09-27T14:54:09.496Z,101704.05
2018-09-27T14:56:39.186Z,101701.11
2018-09-27T14:59:09.865Z,101693.44
2018-09-27T15:01:40.938Z,101692.72
2018-09-27T15:04:10.741Z,101682.32
2018-09-27T15:06:41.070Z,101679.07
2018-09-27T15:09:12.190Z,101676.88
2018-09-27T15:11:42.047Z,101677.97
2018-09-27T15:14:12.639Z,101671.74
2018-09-27T15:16:42.445Z,101674.93
2018-09-27T15:19:12.814Z,101677.55
2018-09-27T15:21:42.498Z,101671.27
2018-09-27T15:24:12.718Z,101668.17
2018-09-27T15:26:43.230Z,101662.39
2018-09-27T15:29:15.634Z,101667.13
2018-09-27T15:31:45.366Z,101665.15
2018-09-27T15:34:15.045Z,101666.22
2018-09-27T15:36:45.878Z,101659.42
2018-09-27T15:39:15.813Z,101657.44
2018-09-27T15:41:45.568Z,101656.67
2018-09-27T15:44:15.579Z,101652.31
2018-09-27T15:46:45.517Z,101650.84
2018-09-27T15:49:15.316Z,101651.88
2018-09-27T15:51:45.738Z,101649.60
2018-09-27T15:54:16.522Z,101640.91
2018-09-27T15:56:46.999Z,101640.06
2018-09-27T15:59:17.274Z,101632.69
2018-09-27T16:01:47.243Z,101633.51
2018-09-27T16:04:17.021Z,101629.93
2018-09-27T16:06:46.866Z,101623.25
2018-09-27T16:09:16.827Z,101626.72
2018-09-27T16:11:46.835Z,101625.12
2018-09-27T16:14:16.467Z,101623.14
2018-09-27T16:16:46.462Z,101623.23
2018-09-27T16:19:16.282Z,101624.75
2018-09-27T16:21:55.882Z,101621.33
2018-09-27T16:24:27.981Z,101617.70
2018-09-27T16:26:57.809Z,101613.05
2018-09-27T16:29:27.475Z,101610.19
2018-09-27T16:31:57.234Z,101606.00
2018-09-27T16:34:27.134Z,101606.18
2018-09-27T16:36:56.904Z,101609.27
2018-09-27T16:39:26.718Z,101618.27
2018-09-27T16:41:56.421Z,101612.92
2018-09-27T16:44:26.401Z,101620.84
2018-09-27T16:46:56.451Z,101615.17
2018-09-27T16:49:26.149Z,101612.20
2018-09-27T16:51:55.929Z,101608.45
2018-09-27T16:54:25.611Z,101611.99
2018-09-27T16:56:55.383Z,101614.23
2018-09-27T16:59:25.306Z,101607.46
2018-09-27T17:01:57.395Z,101600.19
2018-09-27T17:04:29.785Z,101604.75
2018-09-27T17:07:00.959Z,101599.17
2018-09-27T17:09:32.852Z,101592.73
2018-09-27T17:12:16.008Z,101595.36
2018-09-27T17:14:46.547Z,101589.32
2018-09-27T17:17:17.459Z,101585.44
2018-09-27T17:19:47.234Z,101591.62
2018-09-27T17:22:17.774Z,101592.52
2018-09-27T17:24:47.585Z,101590.30
2018-09-27T17:27:18.354Z,101592.47
2018-09-27T17:29:48.404Z,101586.78
2018-09-27T17:32:18.100Z,101589.84
2018-09-27T17:34:47.911Z,101586.27
2018-09-27T17:37:18.051Z,101579.23
2018-09-27T17:39:47.834Z,101576.13
2018-09-27T17:42:17.550Z,101588.72
2018-09-27T17:44:48.500Z,101581.62
2018-09-27T17:47:18.489Z,101587.19
2018-09-27T17:49:48.490Z,101586.61
2018-09-27T17:52:18.253Z,101581.29
2018-09-27T17:54:48.251Z,101579.40
2018-09-27T17:57:21.056Z,101588.44
2018-09-27T17:59:52.631Z,101584.41
2018-09-27T18:02:23.446Z,101585.18
2018-09-27T18:04:53.086Z,101593.77
2018-09-27T18:07:22.851Z,101591.94
2018-09-27T18:09:52.554Z,101585.72
2018-09-27T18:12:22.315Z,101584.64
2018-09-27T18:14:52.081Z,101586.73
2018-09-27T18:17:21.808Z,101592.69
2018-09-27T18:19:51.548Z,101586.50
2018-09-27T18:22:21.605Z,101582.31
2018-09-27T18:24:51.448Z,101590.09
2018-09-27T18:27:21.226Z,101592.98
2018-09-27T18:29:51.100Z,101591.53
2018-09-27T18:32:20.807Z,101590.49
2018-09-27T18:34:50.914Z,101588.20
2018-09-27T18:37:20.674Z,101588.20
2018-09-27T18:39:50.459Z,101588.41
2018-09-27T18:42:20.473Z,101586.12
2018-09-27T18:44:50.326Z,101581.26
2018-09-27T18:47:20.506Z,101578.48
2018-09-27T18:49:50.372Z,101578.41
2018-09-27T18:52:20.128Z,101577.47
2018-09-27T18:54:50.265Z,101579.90
2018-09-27T18:57:20.714Z,101578.03
2018-09-27T18:59:50.534Z,101577.52
2018-09-27T19:02:21.918Z,101576.16
2018-09-27T19:04:51.839Z,101575.13
2018-09-27T19:07:21.620Z,101577.03
2018-09-27T19:09:52.352Z,101579.02
2018-09-27T19:12:22.102Z,101581.87
2018-09-27T19:14:54.243Z,101583.05
2018-09-27T19:17:25.076Z,101582.53
2018-09-27T19:19:55.741Z,101580.42
2018-09-27T19:22:26.104Z,101579.86
2018-09-27T19:24:56.478Z,101580.13
2018-09-27T19:27:26.530Z,101578.67
2018-09-27T19:29:59.900Z,101584.61
2018-09-27T19:32:29.979Z,101580.20
2018-09-27T19:34:59.907Z,101578.01
2018-09-27T19:37:30.362Z,101575.64
2018-09-27T19:40:00.648Z,101570.58
2018-09-27T19:42:31.976Z,101576.07
2018-09-27T19:45:02.981Z,101576.36
2018-09-27T19:48:36.284Z,101579.64
2018-09-27T19:51:06.753Z,101577.24
2018-09-27T19:53:36.891Z,101581.77
2018-09-27T19:56:07.848Z,101579.34
2018-09-27T19:58:38.103Z,101586.55
2018-09-27T20:01:09.207Z,101580.31
2018-09-27T20:06:18.886Z,101586.58
2018-09-27T20:08:48.685Z,101586.88
2018-09-27T20:11:20.149Z,101585.97
2018-09-27T20:13:50.909Z,101582.23
2018-09-27T20:16:21.063Z,101580.00
2018-09-27T20:18:51.048Z,101583.90
2018-09-27T20:21:20.866Z,101585.03
2018-09-27T20:23:52.964Z,101584.14
2018-09-27T20:26:24.585Z,101589.17
2018-09-27T20:28:54.547Z,101596.44
2018-09-27T20:31:24.702Z,101593.75
2018-09-27T20:33:55.183Z,101596.36
2018-09-27T20:36:25.479Z,101594.18
2018-09-27T20:38:56.090Z,101593.19
2018-09-27T20:41:26.174Z,101597.03
2018-09-27T20:43:55.878Z,101595.59
2018-09-27T20:46:25.696Z,101595.59
2018-09-27T20:48:55.816Z,101593.70
2018-09-27T20:51:25.628Z,101592.42
2018-09-27T20:53:55.585Z,101590.47
2018-09-27T20:56:25.477Z,101592.56
2018-09-27T20:58:55.302Z,101591.66
2018-09-27T21:01:25.070Z,101589.84
2018-09-27T21:03:54.774Z,101589.27
2018-09-27T21:06:24.522Z,101586.50
2018-09-27T21:08:56.915Z,101585.02
2018-09-27T21:11:27.009Z,101586.31
2018-09-27T21:13:56.992Z,101587.95
2018-09-27T21:16:26.971Z,101583.56
2018-09-27T21:18:56.875Z,101583.08
2018-09-27T21:21:27.402Z,101592.56
2018-09-27T21:23:57.538Z,101592.56
2018-09-27T21:26:27.386Z,101589.91
2018-09-27T21:28:57.122Z,101587.91
2018-09-27T21:31:27.340Z,101586.70
2018-09-27T21:33:57.083Z,101592.66
2018-09-27T21:36:26.869Z,101595.71
2018-09-27T21:38:56.881Z,101590.88
2018-09-27T21:41:26.562Z,101590.20
2018-09-27T21:43:56.288Z,101591.95
2018-09-27T21:46:26.058Z,101592.93
2018-09-27T21:48:56.066Z,101589.76
2018-09-27T21:51:25.996Z,101592.93
2018-09-27T21:53:55.846Z,101587.25
2018-09-27T21:56:25.708Z,101581.56
2018-09-27T21:58:55.510Z,101579.58
2018-09-27T22:01:25.287Z,101574.10
2018-09-27T22:03:55.305Z,101575.28
2018-09-27T22:06:31.885Z,101578.75
2018-09-27T22:09:01.910Z,101581.45
2018-09-27T22:11:31.714Z,101577.85
2018-09-27T22:14:01.410Z,101573.77
2018-09-27T22:16:31.130Z,101576.25
2018-09-27T22:19:00.814Z,101579.53
2018-09-27T22:21:30.480Z,101583.22
2018-09-27T22:24:00.180Z,101586.44
2018-09-27T22:26:29.947Z,101585.88
2018-09-27T22:28:59.841Z,101589.16
2018-09-27T22:31:29.538Z,101587.08
2018-09-27T22:33:59.483Z,101590.10
2018-09-27T22:36:29.428Z,101591.69
2018-09-27T22:38:59.765Z,101591.66
2018-09-27T22:41:29.546Z,101598.60
2018-09-27T22:44:00.421Z,101594.61
2018-09-27T22:46:30.232Z,101593.31
2018-09-27T22:48:59.921Z,101599.04
2018-09-27T22:51:29.651Z,101595.08
2018-09-27T22:53:59.384Z,101592.28
2018-09-27T22:56:29.096Z,101590.42
2018-09-27T22:58:58.807Z,101589.44
2018-09-27T23:01:28.475Z,101590.60
2018-09-27T23:03:58.184Z,101590.84
2018-09-27T23:06:27.880Z,101585.84
2018-09-27T23:08:58.524Z,101587.03
2018-09-27T23:11:32.150Z,101584.22
2018-09-27T23:14:03.519Z,101585.63
2018-09-27T23:16:33.212Z,101580.19
2018-09-27T23:19:03.065Z,101580.05
2018-09-27T23:21:32.957Z,101578.61
2018-09-27T23:24:02.661Z,101574.86
2018-09-27T23:26:32.305Z,101573.19
2018-09-27T23:29:01.983Z,101568.48
2018-09-27T23:31:31.877Z,101571.08
2018-09-27T23:34:01.602Z,101572.52
2018-09-27T23:36:31.487Z,101577.22
2018-09-27T23:39:01.160Z,101575.46
2018-09-27T23:41:31.001Z,101572.72
2018-09-27T23:44:00.945Z,101575.76
2018-09-27T23:46:31.043Z,101576.00
2018-09-27T23:49:00.827Z,101573.00
2018-09-27T23:51:30.488Z,101573.20
2018-09-27T23:54:00.373Z,101567.91
2018-09-27T23:56:30.035Z,101563.72
2018-09-27T23:58:59.769Z,101558.87
